Terminal Aerodrome Forecast
Issued by NWS

Home | Current Version | Previous Version | Text Only | Print | Product List | Glossary On
Versions: 1 2 3 4 5 6 7 8 9 10 11 12 13 14 15 16 17 18
000
FTUS43 KDMX 111125
TAFOTM
TAF
KOTM 111125Z 1112/1212 18007KT P6SM SKC
     FM111400 24009KT P6SM SCT220
     FM111600 27014G21KT P6SM SCT240
     FM111800 31022G33KT P6SM BKN080
     FM112100 32021G32KT P6SM OVC030
     FM120100 33018G28KT P6SM BKN040
     FM120900 32013G19KT P6SM FEW250=

USA.gov is the U.S. government's official web portal to all federal, state and local government web resources and services.